Forrester Center, West Virginia
Current Conditions -  °F | °C
As of 4:53 PM on Friday 24 Oct 2014 (Local Time) from KMRB Reporting Station
Clear Clear  
Wind Chill: 63°   Ceiling: Unl
Heat Index: 63°   Visibility: 10mi
Dew Point: 32°   Wind: 13mph
Humidity: 31%   Direction: 280°W
Pressure: 29.94"   Gusts: NA
Location:  39.3053°N, 77.8555°W
Report Text: KMRB 242053Z 28011KT 10SM CLR 17/00 A2994 RMK AO2 SLP137 T01720000 55006
Loading
Personal Weather Stations






























Interactive Weather Map
Tropical Storm Tracking
New forecast layout! Learn more

10-Day Weather Forecast

Advertisements
Track Severe Weather on mobile